KOFK

Norfolk Regional / Karl Stefan Memorial Field Airport

Norfolk, Nebraska, USA
METAR KOFK 160556Z AUTO 33007KT 10SM FEW032 SCT049 BKN060 21/17 A2998 RMK AO2 LTG DSNT W-N SLP141 T02060172 10272 20206 402940156 50009
Observed Flight Rules
Aug-16 @ 05:56 UTC (20 minutes ago) Visual Flight Rules
Wind Visibility Clouds
330° at 7 knots 10 miles
  • Few at 3,200' AGL
  • Scattered at 4,900' AGL
  • Broken at 6,000' AGL
Temperatures Readings
Current 21°C / 70°F
Dewpoint 17°C / 63°F
Humidity 78%
Altimeter 29.98" Hg
Pressure 1014.1 hPa
Elevation 470
METAR KOFK 160556Z AUTO 33007KT 10SM FEW032 SCT049 BKN060 21/17 A2998 RMK AO2 LTG DSNT W-N SLP141 T02060172 10272 20206 402940156 50009
Observed Flight Rules
Aug-16 @ 05:56 UTC
(20 minutes ago)
VFR
Wind Visibility
330° at 7 knots 10 miles
Clouds
  • Few at 3,200' AGL
  • Scattered at 4,900' AGL
  • Broken at 6,000' AGL
Temperature Dewpoint
21°C / 70°F 17°C / 63°F
Humidity Altimeter Pressure
78% 29.98" Hg 1014.1 hPa